sensor_id;sensor_type;location;lat;lon;timestamp;P1;durP1;ratioP1;P2;durP2;ratioP2
6269;SDS011;3168;51.684;6.954;2024-03-23T00:54:07;4.90;;;3.27;;
6269;SDS011;3168;51.684;6.954;2024-03-23T00:56:33;5.20;;;2.27;;
6269;SDS011;3168;51.684;6.954;2024-03-23T00:58:59;2.83;;;2.53;;
6269;SDS011;3168;51.684;6.954;2024-03-23T01:01:25;4.27;;;2.93;;
6269;SDS011;3168;51.684;6.954;2024-03-23T01:03:51;6.40;;;2.60;;
6269;SDS011;3168;51.684;6.954;2024-03-23T01:06:17;7.13;;;3.33;;
6269;SDS011;3168;51.684;6.954;2024-03-23T01:08:43;1.57;;;1.53;;
6269;SDS011;3168;51.684;6.954;2024-03-23T01:11:16;7.10;;;2.73;;
6269;SDS011;3168;51.684;6.954;2024-03-23T01:13:42;10.33;;;2.50;;
6269;SDS011;3168;51.684;6.954;2024-03-23T01:16:09;10.83;;;2.37;;
6269;SDS011;3168;51.684;6.954;2024-03-23T01:18:34;11.27;;;2.63;;
6269;SDS011;3168;51.684;6.954;2024-03-23T01:21:00;4.47;;;3.23;;
6269;SDS011;3168;51.684;6.954;2024-03-23T01:23:26;11.80;;;3.53;;
6269;SDS011;3168;51.684;6.954;2024-03-23T01:25:53;4.67;;;2.57;;
6269;SDS011;3168;51.684;6.954;2024-03-23T01:28:18;5.40;;;1.53;;
6269;SDS011;3168;51.684;6.954;2024-03-23T01:30:45;3.53;;;1.60;;
6269;SDS011;3168;51.684;6.954;2024-03-23T01:33:11;1.73;;;1.73;;
6269;SDS011;3168;51.684;6.954;2024-03-23T01:35:37;7.03;;;2.80;;
6269;SDS011;3168;51.684;6.954;2024-03-23T01:38:03;2.20;;;2.00;;
6269;SDS011;3168;51.684;6.954;2024-03-23T01:40:29;2.07;;;1.97;;
6269;SDS011;3168;51.684;6.954;2024-03-23T01:42:56;5.50;;;3.83;;
6269;SDS011;3168;51.684;6.954;2024-03-23T01:45:22;5.37;;;2.07;;
6269;SDS011;3168;51.684;6.954;2024-03-23T01:47:49;4.70;;;4.20;;
6269;SDS011;3168;51.684;6.954;2024-03-23T01:50:14;16.83;;;3.70;;
6269;SDS011;3168;51.684;6.954;2024-03-23T01:52:41;19.53;;;2.37;;
6269;SDS011;3168;51.684;6.954;2024-03-23T01:55:07;5.80;;;1.83;;
6269;SDS011;3168;51.684;6.954;2024-03-23T01:57:33;5.50;;;3.20;;
6269;SDS011;3168;51.684;6.954;2024-03-23T01:59:59;2.40;;;1.70;;
6269;SDS011;3168;51.684;6.954;2024-03-23T02:02:25;1.60;;;1.40;;
6269;SDS011;3168;51.684;6.954;2024-03-23T02:04:51;7.90;;;1.90;;
6269;SDS011;3168;51.684;6.954;2024-03-23T02:07:17;2.43;;;1.77;;
6269;SDS011;3168;51.684;6.954;2024-03-23T02:09:43;1.80;;;1.70;;
6269;SDS011;3168;51.684;6.954;2024-03-23T02:12:08;1.27;;;1.27;;
6269;SDS011;3168;51.684;6.954;2024-03-23T02:14:34;1.70;;;1.60;;
6269;SDS011;3168;51.684;6.954;2024-03-23T02:17:00;1.90;;;1.70;;
6269;SDS011;3168;51.684;6.954;2024-03-23T02:19:26;2.03;;;1.93;;
6269;SDS011;3168;51.684;6.954;2024-03-23T02:21:52;5.27;;;1.33;;
6269;SDS011;3168;51.684;6.954;2024-03-23T02:24:18;2.60;;;2.20;;
6269;SDS011;3168;51.684;6.954;2024-03-23T02:26:44;8.30;;;1.50;;
6269;SDS011;3168;51.684;6.954;2024-03-23T02:29:10;9.53;;;1.37;;
6269;SDS011;3168;51.684;6.954;2024-03-23T02:31:35;1.33;;;1.33;;
6269;SDS011;3168;51.684;6.954;2024-03-23T02:34:01;10.00;;;1.67;;
6269;SDS011;3168;51.684;6.954;2024-03-23T02:36:28;3.73;;;1.60;;
6269;SDS011;3168;51.684;6.954;2024-03-23T02:38:53;16.43;;;1.50;;
6269;SDS011;3168;51.684;6.954;2024-03-23T02:41:19;2.07;;;1.90;;
6269;SDS011;3168;51.684;6.954;2024-03-23T02:43:45;2.22;;;2.12;;
6269;SDS011;3168;51.684;6.954;2024-03-23T02:46:11;5.47;;;1.80;;
6269;SDS011;3168;51.684;6.954;2024-03-23T02:48:37;19.83;;;2.03;;
6269;SDS011;3168;51.684;6.954;2024-03-23T02:51:03;1.00;;;1.00;;
6269;SDS011;3168;51.684;6.954;2024-03-23T02:53:29;1.57;;;1.57;;
6269;SDS011;3168;51.684;6.954;2024-03-23T02:55:57;3.63;;;1.60;;
6269;SDS011;3168;51.684;6.954;2024-03-23T02:58:20;3.67;;;1.63;;
6269;SDS011;3168;51.684;6.954;2024-03-23T03:00:46;3.47;;;1.53;;
6269;SDS011;3168;51.684;6.954;2024-03-23T03:03:12;7.20;;;1.13;;
6269;SDS011;3168;51.684;6.954;2024-03-23T03:05:38;6.73;;;1.43;;
6269;SDS011;3168;51.684;6.954;2024-03-23T03:08:04;3.37;;;1.77;;
6269;SDS011;3168;51.684;6.954;2024-03-23T03:10:30;1.43;;;1.30;;
6269;SDS011;3168;51.684;6.954;2024-03-23T03:12:56;1.40;;;1.30;;
6269;SDS011;3168;51.684;6.954;2024-03-23T03:15:22;3.37;;;1.03;;
6269;SDS011;3168;51.684;6.954;2024-03-23T03:17:48;1.33;;;1.33;;
6269;SDS011;3168;51.684;6.954;2024-03-23T03:20:14;1.07;;;1.07;;
6269;SDS011;3168;51.684;6.954;2024-03-23T03:22:40;9.03;;;1.40;;
6269;SDS011;3168;51.684;6.954;2024-03-23T03:25:06;2.33;;;1.90;;
6269;SDS011;3168;51.684;6.954;2024-03-23T03:27:32;4.23;;;1.33;;
6269;SDS011;3168;51.684;6.954;2024-03-23T03:29:58;2.50;;;1.00;;
6269;SDS011;3168;51.684;6.954;2024-03-23T03:32:24;1.10;;;1.10;;
6269;SDS011;3168;51.684;6.954;2024-03-23T03:34:50;1.10;;;1.10;;
6269;SDS011;3168;51.684;6.954;2024-03-23T03:37:16;7.60;;;1.23;;
6269;SDS011;3168;51.684;6.954;2024-03-23T03:39:42;4.63;;;1.07;;
6269;SDS011;3168;51.684;6.954;2024-03-23T03:42:08;4.20;;;1.13;;
6269;SDS011;3168;51.684;6.954;2024-03-23T03:44:34;4.20;;;2.10;;
6269;SDS011;3168;51.684;6.954;2024-03-23T03:47:00;11.73;;;1.20;;
6269;SDS011;3168;51.684;6.954;2024-03-23T03:49:26;5.47;;;2.20;;
6269;SDS011;3168;51.684;6.954;2024-03-23T03:51:51;4.13;;;1.27;;
6269;SDS011;3168;51.684;6.954;2024-03-23T03:54:17;8.13;;;1.53;;
6269;SDS011;3168;51.684;6.954;2024-03-23T03:56:43;5.70;;;1.50;;
6269;SDS011;3168;51.684;6.954;2024-03-23T03:59:09;10.20;;;1.53;;
6269;SDS011;3168;51.684;6.954;2024-03-23T04:01:35;7.57;;;2.23;;
6269;SDS011;3168;51.684;6.954;2024-03-23T04:04:01;5.70;;;1.80;;
6269;SDS011;3168;51.684;6.954;2024-03-23T04:06:26;4.20;;;1.47;;
6269;SDS011;3168;51.684;6.954;2024-03-23T04:08:52;7.70;;;2.07;;
6269;SDS011;3168;51.684;6.954;2024-03-23T04:11:18;4.07;;;1.60;;
6269;SDS011;3168;51.684;6.954;2024-03-23T04:13:44;17.17;;;1.90;;
6269;SDS011;3168;51.684;6.954;2024-03-23T04:16:09;1.43;;;1.30;;
6269;SDS011;3168;51.684;6.954;2024-03-23T04:18:35;4.70;;;1.37;;
6269;SDS011;3168;51.684;6.954;2024-03-23T04:21:01;1.70;;;1.60;;
6269;SDS011;3168;51.684;6.954;2024-03-23T04:23:27;1.60;;;1.50;;
6269;SDS011;3168;51.684;6.954;2024-03-23T04:25:53;4.90;;;2.00;;
6269;SDS011;3168;51.684;6.954;2024-03-23T04:28:19;15.00;;;2.43;;
6269;SDS011;3168;51.684;6.954;2024-03-23T04:30:45;3.80;;;1.53;;
6269;SDS011;3168;51.684;6.954;2024-03-23T04:33:11;20.70;;;3.23;;
6269;SDS011;3168;51.684;6.954;2024-03-23T04:35:37;2.27;;;2.00;;
6269;SDS011;3168;51.684;6.954;2024-03-23T04:38:03;5.63;;;1.83;;
6269;SDS011;3168;51.684;6.954;2024-03-23T04:40:29;2.97;;;1.20;;
6269;SDS011;3168;51.684;6.954;2024-03-23T04:42:54;1.50;;;1.40;;
6269;SDS011;3168;51.684;6.954;2024-03-23T04:45:20;2.43;;;1.53;;
6269;SDS011;3168;51.684;6.954;2024-03-23T04:47:46;3.67;;;2.13;;
6269;SDS011;3168;51.684;6.954;2024-03-23T04:50:12;7.40;;;1.80;;
6269;SDS011;3168;51.684;6.954;2024-03-23T04:52:38;3.23;;;1.63;;
6269;SDS011;3168;51.684;6.954;2024-03-23T04:55:04;8.67;;;1.77;;
6269;SDS011;3168;51.684;6.954;2024-03-23T04:57:30;3.07;;;2.60;;
6269;SDS011;3168;51.684;6.954;2024-03-23T04:59:55;6.30;;;3.87;;
6269;SDS011;3168;51.684;6.954;2024-03-23T05:02:21;5.80;;;2.33;;
6269;SDS011;3168;51.684;6.954;2024-03-23T05:04:47;2.53;;;2.33;;
6269;SDS011;3168;51.684;6.954;2024-03-23T05:07:13;2.10;;;1.80;;
6269;SDS011;3168;51.684;6.954;2024-03-23T05:09:39;8.33;;;2.70;;
6269;SDS011;3168;51.684;6.954;2024-03-23T05:12:05;9.90;;;3.03;;
6269;SDS011;3168;51.684;6.954;2024-03-23T05:14:31;6.33;;;3.07;;
6269;SDS011;3168;51.684;6.954;2024-03-23T05:16:57;2.37;;;2.27;;
6269;SDS011;3168;51.684;6.954;2024-03-23T05:19:22;4.60;;;3.00;;
6269;SDS011;3168;51.684;6.954;2024-03-23T05:21:48;7.33;;;2.80;;
6269;SDS011;3168;51.684;6.954;2024-03-23T05:24:14;3.30;;;2.70;;
6269;SDS011;3168;51.684;6.954;2024-03-23T05:26:40;3.33;;;1.93;;
6269;SDS011;3168;51.684;6.954;2024-03-23T05:29:06;2.30;;;1.90;;
6269;SDS011;3168;51.684;6.954;2024-03-23T05:31:32;2.93;;;1.93;;
6269;SDS011;3168;51.684;6.954;2024-03-23T05:33:58;12.03;;;2.73;;
6269;SDS011;3168;51.684;6.954;2024-03-23T05:36:23;7.87;;;3.40;;
6269;SDS011;3168;51.684;6.954;2024-03-23T05:38:49;10.50;;;4.10;;
6269;SDS011;3168;51.684;6.954;2024-03-23T05:41:15;2.93;;;2.60;;
6269;SDS011;3168;51.684;6.954;2024-03-23T05:43:41;3.17;;;2.80;;
6269;SDS011;3168;51.684;6.954;2024-03-23T05:46:07;7.43;;;2.20;;
6269;SDS011;3168;51.684;6.954;2024-03-23T05:48:33;4.00;;;3.67;;
6269;SDS011;3168;51.684;6.954;2024-03-23T05:50:59;3.43;;;3.13;;
6269;SDS011;3168;51.684;6.954;2024-03-23T05:53:25;11.27;;;3.10;;
6269;SDS011;3168;51.684;6.954;2024-03-23T05:55:51;3.93;;;3.00;;
6269;SDS011;3168;51.684;6.954;2024-03-23T05:58:17;3.23;;;2.93;;
6269;SDS011;3168;51.684;6.954;2024-03-23T06:00:42;3.57;;;3.27;;
6269;SDS011;3168;51.684;6.954;2024-03-23T06:03:08;3.27;;;3.07;;
6269;SDS011;3168;51.684;6.954;2024-03-23T06:05:34;2.63;;;2.53;;
6269;SDS011;3168;51.684;6.954;2024-03-23T06:08:00;10.60;;;3.77;;
6269;SDS011;3168;51.684;6.954;2024-03-23T06:10:25;20.07;;;2.90;;
6269;SDS011;3168;51.684;6.954;2024-03-23T06:12:51;9.03;;;4.10;;
6269;SDS011;3168;51.684;6.954;2024-03-23T06:15:18;7.17;;;3.37;;
6269;SDS011;3168;51.684;6.954;2024-03-23T06:17:43;9.80;;;3.93;;
6269;SDS011;3168;51.684;6.954;2024-03-23T06:20:09;5.03;;;3.33;;
6269;SDS011;3168;51.684;6.954;2024-03-23T06:22:35;5.00;;;4.60;;
6269;SDS011;3168;51.684;6.954;2024-03-23T06:25:01;4.83;;;4.23;;
6269;SDS011;3168;51.684;6.954;2024-03-23T06:27:27;4.10;;;3.80;;
6269;SDS011;3168;51.684;6.954;2024-03-23T06:29:52;3.73;;;3.50;;
6269;SDS011;3168;51.684;6.954;2024-03-23T06:32:18;3.93;;;3.53;;
6269;SDS011;3168;51.684;6.954;2024-03-23T06:34:44;7.40;;;4.30;;
6269;SDS011;3168;51.684;6.954;2024-03-23T06:37:10;14.17;;;5.27;;
6269;SDS011;3168;51.684;6.954;2024-03-23T06:39:36;18.83;;;5.00;;
6269;SDS011;3168;51.684;6.954;2024-03-23T06:42:02;3.50;;;3.30;;
6269;SDS011;3168;51.684;6.954;2024-03-23T06:44:27;6.30;;;4.03;;
6269;SDS011;3168;51.684;6.954;2024-03-23T06:46:53;8.80;;;4.80;;
6269;SDS011;3168;51.684;6.954;2024-03-23T06:49:19;8.93;;;3.73;;
6269;SDS011;3168;51.684;6.954;2024-03-23T06:51:52;8.90;;;3.90;;
6269;SDS011;3168;51.684;6.954;2024-03-23T06:54:19;4.90;;;4.30;;
6269;SDS011;3168;51.684;6.954;2024-03-23T06:56:44;4.87;;;3.63;;
6269;SDS011;3168;51.684;6.954;2024-03-23T06:59:09;7.00;;;4.10;;
6269;SDS011;3168;51.684;6.954;2024-03-23T07:01:35;3.80;;;3.50;;
6269;SDS011;3168;51.684;6.954;2024-03-23T07:04:01;4.40;;;3.53;;
6269;SDS011;3168;51.684;6.954;2024-03-23T07:06:27;8.20;;;5.93;;
6269;SDS011;3168;51.684;6.954;2024-03-23T07:08:53;4.13;;;3.63;;
6269;SDS011;3168;51.684;6.954;2024-03-23T07:11:19;13.37;;;4.10;;
6269;SDS011;3168;51.684;6.954;2024-03-23T07:13:45;12.33;;;4.13;;
6269;SDS011;3168;51.684;6.954;2024-03-23T07:16:10;6.40;;;3.93;;
6269;SDS011;3168;51.684;6.954;2024-03-23T07:18:36;4.13;;;3.63;;
6269;SDS011;3168;51.684;6.954;2024-03-23T07:21:02;9.93;;;4.30;;
6269;SDS011;3168;51.684;6.954;2024-03-23T07:23:28;7.57;;;4.63;;
6269;SDS011;3168;51.684;6.954;2024-03-23T07:25:57;7.23;;;3.77;;
6269;SDS011;3168;51.684;6.954;2024-03-23T07:28:24;7.23;;;4.10;;
6269;SDS011;3168;51.684;6.954;2024-03-23T07:33:27;10.40;;;3.60;;
6269;SDS011;3168;51.684;6.954;2024-03-23T07:35:53;20.57;;;4.40;;
6269;SDS011;3168;51.684;6.954;2024-03-23T07:38:19;10.03;;;4.10;;
6269;SDS011;3168;51.684;6.954;2024-03-23T07:40:45;3.83;;;3.50;;
6269;SDS011;3168;51.684;6.954;2024-03-23T07:43:11;7.80;;;3.73;;
6269;SDS011;3168;51.684;6.954;2024-03-23T07:45:37;5.10;;;3.20;;
6269;SDS011;3168;51.684;6.954;2024-03-23T07:48:03;13.03;;;3.57;;
6269;SDS011;3168;51.684;6.954;2024-03-23T07:50:29;4.70;;;3.27;;
6269;SDS011;3168;51.684;6.954;2024-03-23T07:52:55;4.23;;;3.13;;
6269;SDS011;3168;51.684;6.954;2024-03-23T07:55:20;3.23;;;2.70;;
6269;SDS011;3168;51.684;6.954;2024-03-23T07:57:46;12.43;;;4.10;;
6269;SDS011;3168;51.684;6.954;2024-03-23T08:00:13;5.27;;;3.47;;
6269;SDS011;3168;51.684;6.954;2024-03-23T08:02:39;8.70;;;3.17;;
6269;SDS011;3168;51.684;6.954;2024-03-23T08:05:05;14.40;;;4.50;;
6269;SDS011;3168;51.684;6.954;2024-03-23T08:07:31;5.33;;;3.70;;
6269;SDS011;3168;51.684;6.954;2024-03-23T08:09:57;3.00;;;2.90;;
6269;SDS011;3168;51.684;6.954;2024-03-23T08:12:23;3.83;;;3.30;;
6269;SDS011;3168;51.684;6.954;2024-03-23T08:14:48;7.17;;;2.97;;
6269;SDS011;3168;51.684;6.954;2024-03-23T08:17:14;3.00;;;2.80;;
6269;SDS011;3168;51.684;6.954;2024-03-23T08:19:40;2.70;;;2.53;;
6269;SDS011;3168;51.684;6.954;2024-03-23T08:22:06;19.07;;;3.80;;
6269;SDS011;3168;51.684;6.954;2024-03-23T08:24:32;4.93;;;4.13;;
6269;SDS011;3168;51.684;6.954;2024-03-23T08:26:57;4.10;;;1.97;;
6269;SDS011;3168;51.684;6.954;2024-03-23T08:29:23;10.67;;;5.40;;
6269;SDS011;3168;51.684;6.954;2024-03-23T08:31:49;8.20;;;3.50;;
6269;SDS011;3168;51.684;6.954;2024-03-23T08:34:15;3.83;;;3.50;;
6269;SDS011;3168;51.684;6.954;2024-03-23T08:36:41;9.73;;;5.13;;
6269;SDS011;3168;51.684;6.954;2024-03-23T08:39:07;6.83;;;2.60;;
6269;SDS011;3168;51.684;6.954;2024-03-23T08:41:33;4.30;;;2.90;;
6269;SDS011;3168;51.684;6.954;2024-03-23T08:43:59;4.47;;;3.70;;
6269;SDS011;3168;51.684;6.954;2024-03-23T08:46:24;9.10;;;4.70;;
6269;SDS011;3168;51.684;6.954;2024-03-23T08:48:50;12.40;;;4.60;;
6269;SDS011;3168;51.684;6.954;2024-03-23T08:51:16;7.10;;;3.20;;
6269;SDS011;3168;51.684;6.954;2024-03-23T08:53:42;8.10;;;4.00;;
6269;SDS011;3168;51.684;6.954;2024-03-23T08:56:08;21.93;;;3.27;;
6269;SDS011;3168;51.684;6.954;2024-03-23T08:58:35;6.00;;;4.20;;
6269;SDS011;3168;51.684;6.954;2024-03-23T09:01:03;2.50;;;2.33;;
6269;SDS011;3168;51.684;6.954;2024-03-23T09:03:28;6.27;;;3.90;;
6269;SDS011;3168;51.684;6.954;2024-03-23T09:05:54;10.13;;;3.30;;
6269;SDS011;3168;51.684;6.954;2024-03-23T09:08:20;5.77;;;4.40;;
6269;SDS011;3168;51.684;6.954;2024-03-23T09:10:46;2.40;;;1.60;;
6269;SDS011;3168;51.684;6.954;2024-03-23T09:13:11;2.83;;;1.90;;
6269;SDS011;3168;51.684;6.954;2024-03-23T09:15:44;6.57;;;2.53;;
6269;SDS011;3168;51.684;6.954;2024-03-23T09:18:03;6.10;;;1.83;;
6269;SDS011;3168;51.684;6.954;2024-03-23T09:20:32;6.67;;;2.37;;
6269;SDS011;3168;51.684;6.954;2024-03-23T09:22:58;16.40;;;3.07;;
6269;SDS011;3168;51.684;6.954;2024-03-23T09:25:24;3.87;;;1.97;;
6269;SDS011;3168;51.684;6.954;2024-03-23T09:27:50;4.10;;;1.60;;
6269;SDS011;3168;51.684;6.954;2024-03-23T09:30:16;7.90;;;2.17;;
6269;SDS011;3168;51.684;6.954;2024-03-23T09:32:43;2.00;;;1.90;;
6269;SDS011;3168;51.684;6.954;2024-03-23T09:35:09;4.80;;;2.53;;
6269;SDS011;3168;51.684;6.954;2024-03-23T09:37:35;4.67;;;1.80;;
6269;SDS011;3168;51.684;6.954;2024-03-23T09:40:01;2.97;;;2.10;;
6269;SDS011;3168;51.684;6.954;2024-03-23T09:42:27;1.70;;;1.60;;
6269;SDS011;3168;51.684;6.954;2024-03-23T09:44:53;4.72;;;2.08;;
6269;SDS011;3168;51.684;6.954;2024-03-23T09:47:19;2.03;;;1.93;;
6269;SDS011;3168;51.684;6.954;2024-03-23T09:49:44;2.97;;;1.40;;
6269;SDS011;3168;51.684;6.954;2024-03-23T09:52:10;3.03;;;1.60;;
6269;SDS011;3168;51.684;6.954;2024-03-23T09:54:36;7.93;;;1.30;;
6269;SDS011;3168;51.684;6.954;2024-03-23T09:57:02;2.20;;;1.27;;
6269;SDS011;3168;51.684;6.954;2024-03-23T09:59:29;14.27;;;2.87;;
6269;SDS011;3168;51.684;6.954;2024-03-23T10:01:54;6.73;;;1.73;;
6269;SDS011;3168;51.684;6.954;2024-03-23T10:06:58;5.83;;;2.83;;
6269;SDS011;3168;51.684;6.954;2024-03-23T10:09:23;12.90;;;2.30;;
6269;SDS011;3168;51.684;6.954;2024-03-23T10:11:49;2.00;;;1.37;;
6269;SDS011;3168;51.684;6.954;2024-03-23T10:14:23;10.40;;;1.63;;
6269;SDS011;3168;51.684;6.954;2024-03-23T10:16:41;4.00;;;1.37;;
6269;SDS011;3168;51.684;6.954;2024-03-23T10:19:07;3.30;;;1.50;;
6269;SDS011;3168;51.684;6.954;2024-03-23T10:21:32;7.50;;;1.10;;
6269;SDS011;3168;51.684;6.954;2024-03-23T10:24:00;5.83;;;1.50;;
6269;SDS011;3168;51.684;6.954;2024-03-23T10:26:25;0.87;;;0.87;;
6269;SDS011;3168;51.684;6.954;2024-03-23T10:28:51;1.47;;;1.40;;
6269;SDS011;3168;51.684;6.954;2024-03-23T10:31:17;2.80;;;1.23;;
6269;SDS011;3168;51.684;6.954;2024-03-23T10:33:47;1.10;;;1.10;;
6269;SDS011;3168;51.684;6.954;2024-03-23T10:36:12;1.30;;;1.30;;
6269;SDS011;3168;51.684;6.954;2024-03-23T10:38:39;2.50;;;1.00;;
6269;SDS011;3168;51.684;6.954;2024-03-23T10:41:04;0.83;;;0.83;;
6269;SDS011;3168;51.684;6.954;2024-03-23T10:43:30;1.07;;;1.07;;
6269;SDS011;3168;51.684;6.954;2024-03-23T10:45:55;0.70;;;0.70;;
6269;SDS011;3168;51.684;6.954;2024-03-23T10:48:21;2.10;;;1.03;;
6269;SDS011;3168;51.684;6.954;2024-03-23T10:50:47;0.73;;;0.73;;
6269;SDS011;3168;51.684;6.954;2024-03-23T10:53:13;2.60;;;1.10;;
6269;SDS011;3168;51.684;6.954;2024-03-23T10:55:39;1.13;;;1.10;;
6269;SDS011;3168;51.684;6.954;2024-03-23T10:58:05;1.80;;;1.20;;
6269;SDS011;3168;51.684;6.954;2024-03-23T11:00:30;2.50;;;0.87;;
6269;SDS011;3168;51.684;6.954;2024-03-23T11:02:56;2.40;;;0.90;;
6269;SDS011;3168;51.684;6.954;2024-03-23T11:05:29;3.60;;;1.37;;
6269;SDS011;3168;51.684;6.954;2024-03-23T11:07:54;1.17;;;0.70;;
6269;SDS011;3168;51.684;6.954;2024-03-23T11:10:28;0.70;;;0.70;;
6269;SDS011;3168;51.684;6.954;2024-03-23T11:12:54;0.60;;;0.60;;
6269;SDS011;3168;51.684;6.954;2024-03-23T11:15:20;0.60;;;0.60;;
6269;SDS011;3168;51.684;6.954;2024-03-23T11:18:01;0.60;;;0.60;;
6269;SDS011;3168;51.684;6.954;2024-03-23T11:20:19;0.80;;;0.80;;
6269;SDS011;3168;51.684;6.954;2024-03-23T11:22:45;0.63;;;0.63;;
6269;SDS011;3168;51.684;6.954;2024-03-23T11:25:14;2.00;;;0.90;;
6269;SDS011;3168;51.684;6.954;2024-03-23T11:27:57;3.33;;;0.80;;
6269;SDS011;3168;51.684;6.954;2024-03-23T11:30:24;1.77;;;1.50;;
6269;SDS011;3168;51.684;6.954;2024-03-23T11:32:51;0.60;;;0.60;;
6269;SDS011;3168;51.684;6.954;2024-03-23T11:38:08;0.80;;;0.80;;
6269;SDS011;3168;51.684;6.954;2024-03-23T11:40:39;2.70;;;1.17;;
6269;SDS011;3168;51.684;6.954;2024-03-23T11:43:08;1.17;;;1.17;;
6269;SDS011;3168;51.684;6.954;2024-03-23T11:45:34;0.80;;;0.80;;
6269;SDS011;3168;51.684;6.954;2024-03-23T11:48:02;1.93;;;1.70;;
6269;SDS011;3168;51.684;6.954;2024-03-23T11:50:30;3.73;;;1.10;;
6269;SDS011;3168;51.684;6.954;2024-03-23T11:53:28;11.63;;;1.67;;
6269;SDS011;3168;51.684;6.954;2024-03-23T11:55:47;0.83;;;0.83;;
6269;SDS011;3168;51.684;6.954;2024-03-23T11:58:16;9.17;;;1.67;;
6269;SDS011;3168;51.684;6.954;2024-03-23T12:00:42;1.00;;;1.00;;
6269;SDS011;3168;51.684;6.954;2024-03-23T12:03:08;5.20;;;1.57;;
6269;SDS011;3168;51.684;6.954;2024-03-23T12:05:34;1.30;;;1.00;;
6269;SDS011;3168;51.684;6.954;2024-03-23T12:10:38;3.80;;;1.33;;
6269;SDS011;3168;51.684;6.954;2024-03-23T12:13:03;1.50;;;1.00;;
6269;SDS011;3168;51.684;6.954;2024-03-23T12:15:29;1.80;;;1.13;;
6269;SDS011;3168;51.684;6.954;2024-03-23T12:20:33;0.90;;;0.90;;
6269;SDS011;3168;51.684;6.954;2024-03-23T12:23:04;13.83;;;1.37;;
6269;SDS011;3168;51.684;6.954;2024-03-23T12:25:31;2.53;;;1.53;;
6269;SDS011;3168;51.684;6.954;2024-03-23T12:27:58;1.97;;;1.80;;
6269;SDS011;3168;51.684;6.954;2024-03-23T12:30:24;0.90;;;0.90;;
6269;SDS011;3168;51.684;6.954;2024-03-23T12:32:50;2.63;;;1.00;;
6269;SDS011;3168;51.684;6.954;2024-03-23T12:35:16;1.60;;;1.60;;
6269;SDS011;3168;51.684;6.954;2024-03-23T12:37:43;1.63;;;1.30;;
6269;SDS011;3168;51.684;6.954;2024-03-23T12:40:08;3.13;;;1.13;;
6269;SDS011;3168;51.684;6.954;2024-03-23T12:42:34;2.43;;;1.70;;
6269;SDS011;3168;51.684;6.954;2024-03-23T12:45:00;1.57;;;1.47;;
6269;SDS011;3168;51.684;6.954;2024-03-23T12:47:26;2.25;;;1.37;;
6269;SDS011;3168;51.684;6.954;2024-03-23T12:49:52;1.43;;;1.33;;
6269;SDS011;3168;51.684;6.954;2024-03-23T12:52:17;0.73;;;0.73;;
6269;SDS011;3168;51.684;6.954;2024-03-23T12:54:43;2.10;;;1.00;;
6269;SDS011;3168;51.684;6.954;2024-03-23T12:57:09;8.73;;;1.23;;
6269;SDS011;3168;51.684;6.954;2024-03-23T12:59:35;1.40;;;1.40;;
6269;SDS011;3168;51.684;6.954;2024-03-23T13:02:01;2.20;;;0.90;;
6269;SDS011;3168;51.684;6.954;2024-03-23T13:04:27;0.70;;;0.70;;
6269;SDS011;3168;51.684;6.954;2024-03-23T13:06:53;0.67;;;0.67;;
6269;SDS011;3168;51.684;6.954;2024-03-23T13:09:18;1.00;;;0.93;;
6269;SDS011;3168;51.684;6.954;2024-03-23T13:11:44;1.47;;;1.00;;
6269;SDS011;3168;51.684;6.954;2024-03-23T13:14:11;0.83;;;0.83;;
6269;SDS011;3168;51.684;6.954;2024-03-23T13:16:37;0.90;;;0.80;;
6269;SDS011;3168;51.684;6.954;2024-03-23T13:19:03;2.00;;;0.70;;
6269;SDS011;3168;51.684;6.954;2024-03-23T13:21:29;0.80;;;0.80;;
6269;SDS011;3168;51.684;6.954;2024-03-23T13:23:55;1.00;;;1.00;;
6269;SDS011;3168;51.684;6.954;2024-03-23T13:26:21;1.50;;;1.40;;
6269;SDS011;3168;51.684;6.954;2024-03-23T13:28:47;3.70;;;0.70;;
6269;SDS011;3168;51.684;6.954;2024-03-23T13:31:12;1.00;;;0.93;;
6269;SDS011;3168;51.684;6.954;2024-03-23T13:33:38;1.67;;;1.03;;
6269;SDS011;3168;51.684;6.954;2024-03-23T13:36:04;0.80;;;0.80;;
6269;SDS011;3168;51.684;6.954;2024-03-23T13:38:30;1.13;;;1.03;;
6269;SDS011;3168;51.684;6.954;2024-03-23T13:40:57;2.70;;;1.07;;
6269;SDS011;3168;51.684;6.954;2024-03-23T13:43:23;0.93;;;0.93;;
6269;SDS011;3168;51.684;6.954;2024-03-23T13:45:49;1.53;;;1.00;;
6269;SDS011;3168;51.684;6.954;2024-03-23T13:48:14;4.07;;;1.67;;
6269;SDS011;3168;51.684;6.954;2024-03-23T13:50:40;8.40;;;0.87;;
6269;SDS011;3168;51.684;6.954;2024-03-23T13:53:06;1.50;;;0.80;;
6269;SDS011;3168;51.684;6.954;2024-03-23T13:55:31;0.60;;;0.60;;
6269;SDS011;3168;51.684;6.954;2024-03-23T13:57:57;4.63;;;0.90;;
6269;SDS011;3168;51.684;6.954;2024-03-23T14:00:23;1.80;;;1.27;;
6269;SDS011;3168;51.684;6.954;2024-03-23T14:02:49;1.70;;;1.20;;
6269;SDS011;3168;51.684;6.954;2024-03-23T14:05:15;1.33;;;0.73;;
6269;SDS011;3168;51.684;6.954;2024-03-23T14:07:41;0.80;;;0.80;;
6269;SDS011;3168;51.684;6.954;2024-03-23T14:10:07;1.30;;;1.17;;
6269;SDS011;3168;51.684;6.954;2024-03-23T14:12:33;0.60;;;0.60;;
6269;SDS011;3168;51.684;6.954;2024-03-23T14:14:59;0.70;;;0.70;;
6269;SDS011;3168;51.684;6.954;2024-03-23T14:17:25;1.63;;;1.53;;
6269;SDS011;3168;51.684;6.954;2024-03-23T14:19:50;0.60;;;0.60;;
6269;SDS011;3168;51.684;6.954;2024-03-23T14:22:16;2.30;;;0.97;;
6269;SDS011;3168;51.684;6.954;2024-03-23T14:24:42;2.27;;;1.17;;
6269;SDS011;3168;51.684;6.954;2024-03-23T14:27:08;0.70;;;0.70;;
6269;SDS011;3168;51.684;6.954;2024-03-23T14:29:34;1.10;;;1.10;;
6269;SDS011;3168;51.684;6.954;2024-03-23T14:32:00;1.03;;;0.93;;
6269;SDS011;3168;51.684;6.954;2024-03-23T14:34:26;0.97;;;0.83;;
6269;SDS011;3168;51.684;6.954;2024-03-23T14:36:51;0.50;;;0.50;;
6269;SDS011;3168;51.684;6.954;2024-03-23T14:39:17;0.60;;;0.60;;
6269;SDS011;3168;51.684;6.954;2024-03-23T14:41:43;2.27;;;1.20;;
6269;SDS011;3168;51.684;6.954;2024-03-23T14:44:09;0.90;;;0.90;;
6269;SDS011;3168;51.684;6.954;2024-03-23T14:46:35;1.87;;;0.80;;
6269;SDS011;3168;51.684;6.954;2024-03-23T14:49:01;1.17;;;1.07;;
6269;SDS011;3168;51.684;6.954;2024-03-23T14:51:26;4.30;;;1.00;;
6269;SDS011;3168;51.684;6.954;2024-03-23T14:53:52;0.80;;;0.80;;
6269;SDS011;3168;51.684;6.954;2024-03-23T14:56:18;1.17;;;0.80;;
6269;SDS011;3168;51.684;6.954;2024-03-23T14:58:44;0.70;;;0.70;;
6269;SDS011;3168;51.684;6.954;2024-03-23T15:01:10;1.43;;;0.80;;
6269;SDS011;3168;51.684;6.954;2024-03-23T15:03:36;11.30;;;1.23;;
6269;SDS011;3168;51.684;6.954;2024-03-23T15:06:02;2.20;;;1.70;;
6269;SDS011;3168;51.684;6.954;2024-03-23T15:08:28;0.80;;;0.80;;
6269;SDS011;3168;51.684;6.954;2024-03-23T15:10:54;10.00;;;1.00;;
6269;SDS011;3168;51.684;6.954;2024-03-23T15:13:20;2.83;;;1.00;;
6269;SDS011;3168;51.684;6.954;2024-03-23T15:15:46;0.77;;;0.70;;
6269;SDS011;3168;51.684;6.954;2024-03-23T15:18:12;0.70;;;0.70;;
6269;SDS011;3168;51.684;6.954;2024-03-23T15:20:38;0.80;;;0.80;;
6269;SDS011;3168;51.684;6.954;2024-03-23T15:23:04;0.50;;;0.50;;
6269;SDS011;3168;51.684;6.954;2024-03-23T15:25:30;0.93;;;0.93;;
6269;SDS011;3168;51.684;6.954;2024-03-23T15:27:56;0.90;;;0.90;;
6269;SDS011;3168;51.684;6.954;2024-03-23T15:30:21;2.83;;;1.50;;
6269;SDS011;3168;51.684;6.954;2024-03-23T15:32:47;4.17;;;1.03;;
6269;SDS011;3168;51.684;6.954;2024-03-23T15:35:13;3.90;;;1.00;;
6269;SDS011;3168;51.684;6.954;2024-03-23T15:37:39;0.77;;;0.70;;
6269;SDS011;3168;51.684;6.954;2024-03-23T15:40:06;6.43;;;0.97;;
6269;SDS011;3168;51.684;6.954;2024-03-23T15:42:33;0.60;;;0.60;;
6269;SDS011;3168;51.684;6.954;2024-03-23T15:44:59;2.73;;;0.80;;
6269;SDS011;3168;51.684;6.954;2024-03-23T15:47:25;5.87;;;1.03;;
6269;SDS011;3168;51.684;6.954;2024-03-23T15:49:50;1.07;;;0.70;;
6269;SDS011;3168;51.684;6.954;2024-03-23T15:52:16;1.43;;;0.60;;
6269;SDS011;3168;51.684;6.954;2024-03-23T15:54:43;5.43;;;0.80;;
6269;SDS011;3168;51.684;6.954;2024-03-23T15:57:08;2.70;;;1.07;;
6269;SDS011;3168;51.684;6.954;2024-03-23T15:59:34;0.90;;;0.90;;
6269;SDS011;3168;51.684;6.954;2024-03-23T16:02:00;2.50;;;1.03;;
6269;SDS011;3168;51.684;6.954;2024-03-23T16:04:26;2.63;;;1.33;;
6269;SDS011;3168;51.684;6.954;2024-03-23T16:06:52;5.40;;;1.20;;
6269;SDS011;3168;51.684;6.954;2024-03-23T16:09:17;5.20;;;0.90;;
6269;SDS011;3168;51.684;6.954;2024-03-23T16:11:43;3.70;;;1.00;;
6269;SDS011;3168;51.684;6.954;2024-03-23T16:14:09;1.33;;;1.23;;